createdAt,value
2018-08-16T11:53:08.264Z,25.21
2018-08-16T11:54:08.288Z,25.23
2018-08-16T11:54:38.763Z,25.18
2018-08-16T11:55:38.783Z,25.15
2018-08-16T11:56:38.752Z,25.15
2018-08-16T11:57:38.747Z,25.32
2018-08-16T11:58:38.788Z,25.30
2018-08-16T11:59:38.732Z,25.20
2018-08-16T12:00:38.746Z,25.27
2018-08-16T12:01:38.709Z,25.27
2018-08-16T12:02:38.700Z,25.27
2018-08-16T12:03:38.687Z,25.23
2018-08-16T12:04:38.705Z,25.23
2018-08-16T12:05:38.674Z,25.25
2018-08-16T12:06:38.689Z,25.28
2018-08-16T12:07:38.657Z,25.18
2018-08-16T12:08:38.649Z,25.27
2018-08-16T12:09:38.641Z,25.15
2018-08-16T12:10:38.644Z,25.15
2018-08-16T12:11:38.647Z,25.13
2018-08-16T12:12:38.619Z,25.10
2018-08-16T12:13:38.609Z,25.05
2018-08-16T12:14:38.620Z,25.00
2018-08-16T12:15:38.596Z,24.98
2018-08-16T12:16:38.608Z,24.96
2018-08-16T12:17:38.580Z,24.96
2018-08-16T12:18:38.574Z,24.88
2018-08-16T12:19:38.569Z,24.85
2018-08-16T12:20:38.586Z,24.80
2018-08-16T12:21:38.557Z,24.76
2018-08-16T12:22:38.568Z,24.78
2018-08-16T12:23:38.542Z,24.85
2018-08-16T12:24:38.533Z,24.80
2018-08-16T12:25:38.543Z,24.71
2018-08-16T12:26:38.526Z,24.77
2018-08-16T12:27:38.543Z,24.77
2018-08-16T12:28:38.520Z,24.73
2018-08-16T12:29:38.513Z,24.71
2018-08-16T12:30:38.509Z,24.64
2018-08-16T12:31:38.532Z,24.64
2018-08-16T12:34:16.682Z,25.47
2018-08-16T12:35:16.658Z,26.58
2018-08-16T12:36:16.648Z,27.37
2018-08-16T12:37:16.663Z,28.15
2018-08-16T12:38:16.629Z,28.83
2018-08-16T12:39:16.614Z,29.42
2018-08-16T12:40:16.606Z,29.82
2018-08-16T12:41:16.631Z,30.34
2018-08-16T12:42:16.680Z,30.46
2018-08-16T12:43:16.571Z,30.75
2018-08-16T12:44:16.560Z,30.84
2018-08-16T12:45:16.571Z,31.17
2018-08-16T12:46:16.604Z,31.28
2018-08-16T12:47:16.536Z,31.68
2018-08-16T12:48:16.540Z,31.91
2018-08-16T12:49:16.512Z,32.11
2018-08-16T12:50:16.495Z,32.37
2018-08-16T12:51:16.486Z,32.51
2018-08-16T12:52:16.478Z,32.60
2018-08-16T12:53:16.485Z,32.75
2018-08-16T12:54:16.455Z,32.87
2018-08-16T12:55:16.457Z,32.87
2018-08-16T12:56:16.433Z,32.92
2018-08-16T12:57:16.431Z,32.67
2018-08-16T12:58:16.415Z,32.55
2018-08-16T12:59:16.401Z,32.67
2018-08-16T13:00:16.404Z,32.56
2018-08-16T13:01:16.383Z,32.67
2018-08-16T13:02:16.371Z,32.59
2018-08-16T13:03:16.363Z,32.52
2018-08-16T13:04:16.354Z,32.44
2018-08-16T13:05:16.351Z,32.51
2018-08-16T13:06:16.332Z,32.59
2018-08-16T13:07:16.316Z,32.88
2018-08-16T13:08:16.333Z,32.99
2018-08-16T13:09:16.300Z,33.22
2018-08-16T13:10:16.285Z,33.34
2018-08-16T13:11:16.306Z,33.45
2018-08-16T13:12:16.265Z,33.66
2018-08-16T13:13:16.254Z,33.59
2018-08-16T13:14:16.243Z,33.61
2018-08-16T13:15:16.233Z,33.42
2018-08-16T13:16:16.239Z,33.49
2018-08-16T13:17:16.213Z,33.22
2018-08-16T13:18:16.223Z,33.35
2018-08-16T13:19:16.191Z,33.61
2018-08-16T13:20:16.181Z,34.03
2018-08-16T13:21:16.169Z,34.27
2018-08-16T13:22:16.161Z,34.61
2018-08-16T13:23:16.172Z,34.99
2018-08-16T13:24:16.138Z,35.70
2018-08-16T13:25:16.130Z,36.16
2018-08-16T13:26:16.120Z,36.84
2018-08-16T13:27:16.125Z,37.60
2018-08-16T13:28:16.113Z,38.42
2018-08-16T13:29:16.110Z,38.79
2018-08-16T13:30:16.076Z,39.50
2018-08-16T13:31:16.170Z,39.82
2018-08-16T13:32:16.059Z,40.25
2018-08-16T13:33:16.050Z,40.51
2018-08-16T13:34:16.061Z,40.50
2018-08-16T13:35:16.027Z,40.45
2018-08-16T13:36:16.026Z,40.61
2018-08-16T13:37:16.097Z,40.54
2018-08-16T13:38:16.022Z,40.08
2018-08-16T13:39:15.992Z,39.45
2018-08-16T13:40:15.988Z,38.93
2018-08-16T13:41:15.975Z,38.25
2018-08-16T13:42:15.980Z,38.20
2018-08-16T13:43:15.977Z,37.78
2018-08-16T13:44:15.946Z,37.76
2018-08-16T13:45:15.963Z,37.72
2018-08-16T13:46:15.939Z,37.57
2018-08-16T13:47:15.935Z,37.20
2018-08-16T13:48:15.986Z,36.81
2018-08-16T13:49:15.918Z,36.80
2018-08-16T13:50:15.920Z,36.87
2018-08-16T13:51:15.900Z,36.84
2018-08-16T13:52:15.884Z,36.19
2018-08-16T13:53:15.867Z,35.74
2018-08-16T13:54:15.909Z,35.74
2018-08-16T13:55:15.853Z,36.05
2018-08-16T13:56:15.847Z,36.16
2018-08-16T13:57:15.866Z,36.09
2018-08-16T13:58:15.828Z,36.20
2018-08-16T13:59:15.837Z,36.27
2018-08-16T14:00:15.807Z,36.53
2018-08-16T14:01:15.825Z,36.94
2018-08-16T14:02:15.786Z,37.17
2018-08-16T14:03:15.779Z,36.98
2018-08-16T14:04:15.771Z,36.35
2018-08-16T14:05:15.754Z,35.94
2018-08-16T14:06:15.764Z,35.70
2018-08-16T14:07:15.785Z,35.48
2018-08-16T14:08:15.733Z,35.16
2018-08-16T14:09:15.719Z,34.99
2018-08-16T14:10:15.704Z,34.88
2018-08-16T14:11:15.724Z,34.87
2018-08-16T14:12:15.692Z,34.73
2018-08-16T14:13:15.721Z,34.66
2018-08-16T14:14:15.663Z,34.50
2018-08-16T14:15:15.653Z,34.31
2018-08-16T14:16:15.646Z,34.08
2018-08-16T14:17:15.639Z,34.17
2018-08-16T14:18:15.655Z,34.22
2018-08-16T14:19:15.617Z,34.17
2018-08-16T14:20:15.604Z,34.02
2018-08-16T14:21:15.591Z,33.68
2018-08-16T14:22:15.585Z,33.53
2018-08-16T14:23:15.597Z,33.49
2018-08-16T14:24:15.571Z,33.23
2018-08-16T14:25:15.550Z,33.18
2018-08-16T14:26:15.574Z,32.99
2018-08-16T14:27:15.565Z,32.92
2018-08-16T14:28:15.525Z,32.87
2018-08-16T14:29:15.573Z,32.78
2018-08-16T14:30:15.501Z,32.72
2018-08-16T14:31:15.489Z,32.62
2018-08-16T14:32:15.507Z,32.57
2018-08-16T14:33:15.489Z,32.51
2018-08-16T14:34:15.456Z,32.37
2018-08-16T14:35:15.448Z,32.29
2018-08-16T14:36:15.453Z,32.25
2018-08-16T14:37:15.468Z,32.32
2018-08-16T14:38:15.441Z,32.32
2018-08-16T14:39:15.406Z,32.22
2018-08-16T14:40:15.392Z,31.93
2018-08-16T14:41:15.396Z,31.80
2018-08-16T14:42:15.409Z,31.75
2018-08-16T14:43:15.367Z,31.53
2018-08-16T14:44:15.355Z,31.54
2018-08-16T14:45:15.340Z,31.68
2018-08-16T14:46:15.372Z,31.81
2018-08-16T14:47:15.321Z,32.06
2018-08-16T14:48:15.323Z,32.13
2018-08-16T14:49:15.307Z,32.23
2018-08-16T14:50:15.292Z,32.22
2018-08-16T14:51:15.363Z,32.14
2018-08-16T14:52:15.273Z,32.19
2018-08-16T14:53:15.278Z,32.28
2018-08-16T14:54:15.255Z,32.29
2018-08-16T14:55:15.239Z,32.13
2018-08-16T14:56:15.259Z,32.03
2018-08-16T14:57:15.222Z,32.04
2018-08-16T14:58:15.205Z,32.13
2018-08-16T14:59:15.192Z,32.03
2018-08-16T15:00:15.186Z,31.88
2018-08-16T15:01:15.200Z,31.85
2018-08-16T15:02:15.161Z,31.84
2018-08-16T15:03:15.162Z,31.92
2018-08-16T15:04:15.161Z,31.88
2018-08-16T15:05:15.199Z,31.92
2018-08-16T15:06:15.146Z,32.15
2018-08-16T15:44:22.563Z,32.11
2018-08-16T15:45:22.527Z,32.11
2018-08-16T15:46:22.521Z,32.07
2018-08-16T15:47:22.501Z,32.06
2018-08-16T15:48:22.495Z,31.96
2018-08-16T15:49:22.510Z,31.89
2018-08-16T15:50:22.471Z,31.89
2018-08-16T15:51:22.459Z,31.78
2018-08-16T15:52:22.470Z,31.68
2018-08-16T15:53:22.439Z,31.62
2018-08-16T15:54:22.427Z,31.57
2018-08-16T15:55:22.440Z,31.58
2018-08-16T15:56:22.430Z,31.61
2018-08-16T15:57:22.395Z,31.58
2018-08-16T15:58:22.385Z,31.56
2018-08-16T15:59:22.376Z,31.39
2018-08-16T16:00:22.395Z,31.36
2018-08-16T16:01:22.358Z,31.21
2018-08-16T16:02:22.344Z,31.09
2018-08-16T16:03:22.335Z,31.09
2018-08-16T16:04:22.326Z,31.06
2018-08-16T16:05:22.380Z,30.98
2018-08-16T16:06:22.341Z,30.95
2018-08-16T16:07:22.318Z,30.77
2018-08-16T16:08:22.280Z,30.75
2018-08-16T16:09:22.273Z,30.61
2018-08-16T16:10:22.260Z,30.58
2018-08-16T16:11:22.273Z,30.53
2018-08-16T16:12:22.238Z,30.35
2018-08-16T16:13:22.227Z,30.34
2018-08-16T16:14:22.250Z,30.31
2018-08-16T16:15:22.207Z,30.35
2018-08-16T16:16:22.200Z,30.23
2018-08-16T16:17:22.256Z,30.27
2018-08-16T16:18:22.177Z,30.29
2018-08-16T16:19:22.378Z,30.23
2018-08-16T16:20:22.153Z,30.23
2018-08-16T16:21:22.146Z,30.22
2018-08-16T16:22:22.174Z,30.24
2018-08-16T16:23:22.126Z,30.20
2018-08-16T16:24:22.177Z,30.19
2018-08-16T16:25:22.183Z,30.08
2018-08-16T16:26:22.098Z,30.10
2018-08-16T16:27:22.082Z,30.05
2018-08-16T16:28:22.068Z,30.07
2018-08-16T16:29:22.083Z,30.11
2018-08-16T16:30:22.048Z,30.07
2018-08-16T16:31:22.060Z,30.13
2018-08-16T16:32:22.051Z,30.08
2018-08-16T16:33:22.017Z,30.07
2018-08-16T16:34:22.006Z,30.08
2018-08-16T16:35:21.995Z,30.05
2018-08-16T16:36:21.985Z,30.08
2018-08-16T16:37:21.996Z,29.95
2018-08-16T16:38:21.984Z,29.98
2018-08-16T16:39:21.980Z,30.01
2018-08-16T16:40:21.945Z,30.05
2018-08-16T16:41:21.932Z,30.15
2018-08-16T16:42:21.929Z,29.98
2018-08-16T16:43:21.910Z,30.00
2018-08-16T16:44:22.140Z,29.98
2018-08-16T16:45:21.893Z,29.90
2018-08-16T16:46:21.887Z,29.95
2018-08-16T16:47:21.869Z,30.00
2018-08-16T16:48:21.861Z,29.92
2018-08-16T16:49:21.870Z,29.94
2018-08-16T16:50:21.836Z,29.83
2018-08-16T16:51:21.826Z,29.78
2018-08-16T16:52:21.914Z,29.78
2018-08-16T16:53:21.805Z,29.73
2018-08-16T16:54:22.186Z,29.74
2018-08-16T16:55:21.784Z,29.67
2018-08-16T16:56:21.777Z,29.61
2018-08-16T16:57:21.761Z,29.52
2018-08-16T16:58:22.181Z,29.53
2018-08-16T16:59:21.862Z,29.55
2018-08-16T17:00:21.731Z,29.53
2018-08-16T17:01:21.719Z,29.49
2018-08-16T17:02:21.712Z,29.39
2018-08-16T17:03:21.703Z,29.34
2018-08-16T17:04:21.712Z,29.28
2018-08-16T17:05:21.681Z,29.21
2018-08-16T17:06:21.671Z,29.18
2018-08-16T17:07:21.733Z,29.30
2018-08-16T17:08:21.649Z,29.23
2018-08-16T17:09:21.660Z,29.16
2018-08-16T17:10:21.699Z,29.04
2018-08-16T17:11:21.612Z,29.06
2018-08-16T17:12:21.626Z,29.02
2018-08-16T17:13:21.828Z,28.92
2018-08-16T17:14:21.582Z,28.96
2018-08-16T17:15:21.576Z,28.88
2018-08-16T17:16:21.644Z,28.80
2018-08-16T17:17:21.549Z,28.80
2018-08-16T17:18:21.565Z,28.73
2018-08-16T17:19:21.528Z,28.71
2018-08-16T17:20:21.530Z,28.62
2018-08-16T17:21:21.534Z,28.67
2018-08-16T17:22:21.524Z,28.62
2018-08-16T17:23:21.488Z,28.49
2018-08-16T17:24:21.497Z,28.59
2018-08-16T17:25:21.467Z,28.52
2018-08-16T17:26:21.474Z,28.59
2018-08-16T17:27:21.464Z,28.55
2018-08-16T17:28:21.431Z,28.43
2018-08-16T17:29:21.449Z,28.44
2018-08-16T17:30:21.410Z,28.39
2018-08-16T17:31:21.400Z,28.33
2018-08-16T17:32:21.415Z,28.33
2018-08-16T17:33:21.380Z,28.25
2018-08-16T17:34:21.390Z,28.18
2018-08-16T17:35:21.357Z,28.14
2018-08-16T17:36:21.350Z,28.06
2018-08-16T17:37:21.338Z,28.07
2018-08-16T17:38:21.325Z,28.04
2018-08-16T17:39:21.339Z,28.04
2018-08-16T17:40:21.305Z,27.97
2018-08-16T17:41:21.292Z,27.94
2018-08-16T17:42:21.283Z,27.97
2018-08-16T17:43:21.271Z,27.94
2018-08-16T17:44:21.286Z,27.88
2018-08-16T17:45:21.249Z,27.81
2018-08-16T17:46:21.239Z,27.88
2018-08-16T17:47:21.228Z,27.87
2018-08-16T17:48:21.224Z,27.81
2018-08-16T17:49:21.232Z,27.81
2018-08-16T17:50:21.202Z,27.66
2018-08-16T17:51:21.186Z,27.66
2018-08-16T17:52:21.176Z,27.57
2018-08-16T17:53:21.164Z,27.60
2018-08-16T17:54:21.177Z,27.60
2018-08-16T17:55:21.283Z,27.51
2018-08-16T17:56:21.137Z,27.54
2018-08-16T17:57:21.121Z,27.44
2018-08-16T17:58:21.147Z,27.40
2018-08-16T17:59:21.104Z,27.40
2018-08-16T18:00:21.090Z,27.34
2018-08-16T18:01:21.081Z,27.32
2018-08-16T18:02:21.069Z,27.29
2018-08-16T18:03:21.090Z,27.28
2018-08-16T18:04:21.052Z,27.25
2018-08-16T18:05:21.043Z,27.22
2018-08-16T18:06:21.026Z,27.18
2018-08-16T18:07:21.017Z,27.13
2018-08-16T18:08:21.029Z,27.09
2018-08-16T18:09:20.994Z,26.94
2018-08-16T18:10:21.007Z,26.91
2018-08-16T18:11:20.976Z,26.81
2018-08-16T18:12:20.980Z,26.77
2018-08-16T18:13:20.949Z,26.84
2018-08-16T18:14:20.954Z,26.77
2018-08-16T18:15:20.929Z,26.72
2018-08-16T18:16:20.946Z,26.67
2018-08-16T18:17:20.928Z,26.54
2018-08-16T18:18:20.902Z,26.63
2018-08-16T18:19:20.887Z,26.51
2018-08-16T18:20:20.874Z,26.50
2018-08-16T18:21:20.873Z,26.45
2018-08-16T18:22:20.904Z,26.36
2018-08-16T18:23:20.846Z,26.33
2018-08-16T18:24:20.880Z,26.33
2018-08-16T18:25:20.821Z,26.25
2018-08-16T18:26:20.807Z,26.28
2018-08-16T18:27:20.827Z,26.25
2018-08-16T18:28:20.792Z,26.07
2018-08-16T18:29:20.799Z,26.05
2018-08-16T18:30:20.770Z,25.97
2018-08-16T18:31:20.755Z,25.90
2018-08-16T18:32:20.768Z,25.92
2018-08-16T18:33:20.733Z,25.80
2018-08-16T18:34:20.928Z,25.79
2018-08-16T18:35:20.713Z,25.69
2018-08-16T18:36:20.703Z,25.60
2018-08-16T18:37:20.738Z,25.58
2018-08-16T18:38:20.678Z,25.58
2018-08-16T18:39:20.670Z,25.57
2018-08-16T18:40:20.661Z,25.43
2018-08-16T18:41:20.650Z,25.45
2018-08-16T18:42:20.680Z,25.33
2018-08-16T18:43:20.624Z,25.25
2018-08-16T18:44:20.613Z,25.28
2018-08-16T18:45:20.604Z,25.20
2018-08-16T18:46:20.596Z,25.08
2018-08-16T18:47:20.617Z,25.05
2018-08-16T18:48:20.570Z,25.03
2018-08-16T18:49:20.571Z,24.91
2018-08-16T18:50:20.552Z,24.96
2018-08-16T18:51:21.264Z,24.78
2018-08-16T18:52:21.695Z,24.78
2018-08-16T18:53:20.524Z,24.73
2018-08-16T18:54:20.511Z,24.76
2018-08-16T18:55:20.495Z,24.61
2018-08-16T18:56:20.484Z,24.53
2018-08-16T18:57:20.499Z,24.55
2018-08-16T18:58:20.464Z,24.45
2018-08-16T18:59:20.477Z,24.40
2018-08-16T19:00:20.441Z,24.39
2018-08-16T19:01:20.435Z,24.42
2018-08-16T19:02:20.443Z,24.31
2018-08-16T19:03:20.410Z,24.30
2018-08-16T19:04:27.570Z,24.25
2018-08-16T19:05:20.512Z,24.16
2018-08-16T19:06:20.384Z,24.21
2018-08-16T19:07:20.408Z,24.15
2018-08-16T19:08:20.358Z,24.10
2018-08-16T19:09:27.513Z,24.09
2018-08-16T19:10:20.363Z,24.06
2018-08-16T19:11:20.325Z,24.02
2018-08-16T19:12:20.310Z,23.98
2018-08-16T19:13:20.412Z,23.97
2018-08-16T19:14:20.297Z,23.95
2018-08-16T19:15:20.304Z,23.87
2018-08-16T19:16:20.269Z,23.90
2018-08-16T19:17:29.227Z,23.83
2018-08-16T19:18:20.246Z,23.85
2018-08-16T19:19:20.235Z,23.78
2018-08-16T19:20:20.244Z,23.72
2018-08-16T19:21:20.210Z,23.68
2018-08-16T19:22:20.228Z,23.69
2018-08-16T19:23:20.199Z,23.63
2018-08-16T19:24:20.202Z,23.58
2018-08-16T19:25:20.166Z,23.55
2018-08-16T19:26:20.152Z,23.55
2018-08-16T19:27:20.187Z,23.51
2018-08-16T19:28:20.130Z,23.53
2018-08-16T19:29:20.120Z,23.48
2018-08-16T19:30:20.111Z,23.43
2018-08-16T19:31:27.133Z,23.36
2018-08-16T19:32:20.108Z,23.40
2018-08-16T19:33:20.071Z,23.38
2018-08-16T19:34:20.061Z,23.39
2018-08-16T19:35:20.049Z,23.28
2018-08-16T19:36:20.053Z,23.38
2018-08-16T19:37:20.032Z,23.31
2018-08-16T19:38:20.016Z,23.23
2018-08-16T19:39:20.006Z,23.17
2018-08-16T19:40:20.032Z,23.20
2018-08-16T19:41:20.109Z,23.17
2018-08-16T19:42:19.978Z,23.17
2018-08-16T19:43:19.962Z,23.15
2018-08-16T19:44:19.952Z,23.16
2018-08-16T19:45:19.939Z,23.19
2018-08-16T19:46:19.949Z,23.12
2018-08-16T19:47:19.924Z,23.01
2018-08-16T19:48:19.974Z,23.00
2018-08-16T19:49:19.906Z,23.00
2018-08-16T19:50:19.891Z,23.01
2018-08-16T19:51:19.895Z,23.10
2018-08-16T19:52:20.235Z,22.90
2018-08-16T19:53:19.853Z,22.92
2018-08-16T19:54:19.846Z,22.90
2018-08-16T19:55:20.135Z,22.85
2018-08-16T19:56:19.836Z,22.94
2018-08-16T19:57:19.815Z,22.86
2018-08-16T19:58:19.801Z,22.80
2018-08-16T19:59:19.789Z,22.83
2018-08-16T20:00:19.783Z,22.76
2018-08-16T20:01:19.919Z,22.75
2018-08-16T20:02:19.758Z,22.70
2018-08-16T20:03:19.748Z,22.70
2018-08-16T20:04:19.737Z,22.79
2018-08-16T20:05:19.725Z,22.79
2018-08-16T20:06:19.745Z,22.67
2018-08-16T20:07:19.710Z,22.62
2018-08-16T20:08:19.700Z,22.61
2018-08-16T20:09:19.680Z,22.52
2018-08-16T20:10:19.672Z,22.57
2018-08-16T20:11:19.698Z,22.55
2018-08-16T20:12:19.647Z,22.58
2018-08-16T20:13:19.805Z,22.55
2018-08-16T20:14:19.626Z,22.46
2018-08-16T20:15:19.618Z,22.46
2018-08-16T20:16:19.624Z,22.40
2018-08-16T20:17:19.619Z,22.40
2018-08-16T20:18:19.582Z,22.36
2018-08-16T20:19:19.585Z,22.31
2018-08-16T20:20:19.559Z,22.30
2018-08-16T20:21:19.552Z,22.30
2018-08-16T20:22:19.563Z,22.35
2018-08-16T20:23:19.527Z,22.31
2018-08-16T20:24:19.515Z,22.20
2018-08-16T20:25:19.503Z,22.25
2018-08-16T20:26:19.492Z,22.21
2018-08-16T20:27:19.515Z,22.24
2018-08-16T20:28:19.477Z,22.15
2018-08-16T20:29:19.462Z,22.22
2018-08-16T20:30:19.582Z,22.20
2018-08-16T20:31:19.437Z,22.27
2018-08-16T20:32:19.460Z,22.14
2018-08-16T20:33:19.417Z,22.18
2018-08-16T20:34:19.405Z,22.07
2018-08-16T20:35:19.393Z,22.17
2018-08-16T20:36:19.386Z,22.05
2018-08-16T20:37:19.394Z,22.00
2018-08-16T20:38:19.360Z,21.99
2018-08-16T20:39:19.353Z,21.94
2018-08-16T20:40:19.379Z,21.92
2018-08-16T20:41:19.327Z,21.86
2018-08-16T20:42:19.325Z,21.72
2018-08-16T20:43:19.343Z,21.80
2018-08-16T20:44:19.298Z,21.74
2018-08-16T20:45:19.314Z,21.75
2018-08-16T20:46:19.271Z,21.71
2018-08-16T20:47:19.261Z,21.65
2018-08-16T20:48:19.250Z,21.65
2018-08-16T20:49:19.238Z,21.65
2018-08-16T20:50:19.259Z,21.62
2018-08-16T20:51:19.221Z,21.58
2018-08-16T20:52:19.205Z,21.67
2018-08-16T20:53:19.200Z,21.67
2018-08-16T20:54:19.183Z,21.62
2018-08-16T20:55:19.197Z,21.64
2018-08-16T20:56:19.192Z,21.61
2018-08-16T20:57:19.226Z,21.49
2018-08-16T20:58:19.141Z,21.56
2018-08-16T20:59:19.132Z,21.53
2018-08-16T21:00:19.116Z,21.50
2018-08-16T21:01:19.136Z,21.44
2018-08-16T21:02:19.096Z,21.43
2018-08-16T21:03:19.084Z,21.35
2018-08-16T21:04:19.074Z,21.35
2018-08-16T21:05:19.088Z,21.35
2018-08-16T21:06:19.077Z,21.28
2018-08-16T21:07:19.040Z,21.31
2018-08-16T21:08:19.029Z,21.22
2018-08-16T21:09:19.022Z,21.21
2018-08-16T21:10:19.081Z,21.25
2018-08-16T21:11:19.036Z,21.25
2018-08-16T21:12:18.985Z,21.25
2018-08-16T21:13:18.978Z,21.25
2018-08-16T21:14:18.965Z,21.16
2018-08-16T21:15:18.951Z,21.17
2018-08-16T21:16:18.962Z,21.16
2018-08-16T21:17:18.963Z,21.17
2018-08-16T21:18:18.918Z,21.12
2018-08-16T21:19:18.907Z,21.13
2018-08-16T21:20:18.900Z,21.13
2018-08-16T21:21:18.887Z,21.22
2018-08-16T21:22:18.896Z,21.19
2018-08-16T21:23:18.866Z,21.19
2018-08-16T21:24:18.912Z,21.10
2018-08-16T21:25:18.843Z,21.09
2018-08-16T21:26:18.855Z,21.06
2018-08-16T21:27:18.821Z,20.98
2018-08-16T21:28:18.813Z,20.95
2018-08-16T21:29:18.804Z,20.95
2018-08-16T21:30:18.787Z,20.97
2018-08-16T21:31:18.788Z,20.95
2018-08-16T21:32:18.764Z,21.01
2018-08-16T21:33:18.753Z,20.84
2018-08-16T21:34:18.743Z,20.84
2018-08-16T21:35:18.734Z,20.89
2018-08-16T21:36:18.745Z,20.87
2018-08-16T21:37:18.730Z,20.79
2018-08-16T21:38:18.699Z,20.74
2018-08-16T21:39:18.688Z,20.73
2018-08-16T21:40:18.700Z,20.74
2018-08-16T21:41:18.664Z,20.67
2018-08-16T21:42:18.676Z,20.64
2018-08-16T21:43:18.642Z,20.57
2018-08-16T21:44:18.643Z,20.58
2018-08-16T21:45:18.620Z,20.58
2018-08-16T21:46:18.610Z,20.62
2018-08-16T21:47:18.619Z,20.58
2018-08-16T21:48:18.614Z,20.51
2018-08-16T21:49:18.576Z,20.43
2018-08-16T21:50:18.566Z,20.48
2018-08-16T21:51:18.554Z,20.41
2018-08-16T21:52:18.543Z,20.33
2018-08-16T21:53:18.554Z,20.24
2018-08-16T21:54:18.521Z,20.18
2018-08-16T21:55:18.511Z,20.02
2018-08-16T21:56:18.499Z,20.02
2018-08-16T21:57:18.487Z,20.03
2018-08-16T21:58:18.491Z,20.06
2018-08-16T21:59:18.469Z,20.01
2018-08-16T22:00:18.480Z,19.98
2018-08-16T22:01:18.461Z,20.03
2018-08-16T22:02:18.434Z,20.03
2018-08-16T22:03:18.426Z,20.01
2018-08-16T22:04:18.413Z,20.08
2018-08-16T22:05:18.400Z,20.10
2018-08-16T22:06:18.405Z,20.08
2018-08-16T22:07:18.380Z,20.03
2018-08-16T22:08:18.369Z,20.10
2018-08-16T22:09:18.358Z,20.10
2018-08-16T22:10:18.349Z,20.08
2018-08-16T22:11:18.358Z,20.03
2018-08-16T22:12:18.328Z,19.96
2018-08-16T22:13:18.313Z,19.99
2018-08-16T22:14:18.305Z,19.95
2018-08-16T22:15:18.312Z,19.99
2018-08-16T22:16:18.284Z,19.95
2018-08-16T22:17:18.274Z,19.96
2018-08-16T22:18:18.259Z,19.98
2018-08-16T22:19:18.247Z,19.96
2018-08-16T22:20:18.267Z,19.99
2018-08-16T22:21:18.229Z,19.94
2018-08-16T22:22:18.214Z,19.96
2018-08-16T22:23:18.204Z,20.01
2018-08-16T22:24:18.193Z,19.99
2018-08-16T22:25:18.203Z,19.98
2018-08-16T22:26:18.205Z,19.99
2018-08-16T22:27:18.160Z,20.03
2018-08-16T22:28:18.163Z,19.99
2018-08-16T22:29:18.141Z,19.99
2018-08-16T22:30:18.133Z,19.91
2018-08-16T22:31:18.141Z,19.86
2018-08-16T22:32:18.107Z,19.88
2018-08-16T22:33:18.095Z,19.87
2018-08-16T22:34:18.114Z,19.77
2018-08-16T22:35:18.073Z,19.83
2018-08-16T22:36:18.062Z,19.77
2018-08-16T22:37:18.049Z,19.71
2018-08-16T22:38:18.042Z,19.74
2018-08-16T22:39:18.050Z,19.74
2018-08-16T22:40:18.018Z,19.74
2018-08-16T22:41:18.009Z,19.71
2018-08-16T22:42:18.017Z,19.73
2018-08-16T22:43:17.984Z,19.68
2018-08-16T22:44:17.974Z,19.62
2018-08-16T22:45:17.962Z,19.55
2018-08-16T22:46:17.983Z,19.54
2018-08-16T22:47:17.941Z,19.50
2018-08-16T22:48:17.932Z,19.59
2018-08-16T22:49:17.918Z,19.50
2018-08-16T22:50:17.909Z,19.46
2018-08-16T22:51:17.919Z,19.46
2018-08-16T22:52:17.886Z,19.37
2018-08-16T22:53:17.875Z,19.41
2018-08-16T22:54:17.865Z,19.33
2018-08-16T22:55:17.853Z,19.33
2018-08-16T22:56:17.872Z,19.40
2018-08-16T22:57:17.832Z,19.43
2018-08-16T22:58:17.821Z,19.36
2018-08-16T22:59:17.809Z,19.31
2018-08-16T23:00:17.803Z,19.29
2018-08-16T23:01:17.822Z,19.21
2018-08-16T23:02:17.776Z,19.31
2018-08-16T23:03:17.766Z,19.26
2018-08-16T23:04:17.755Z,19.18
2018-08-16T23:05:17.864Z,19.19
2018-08-16T23:06:17.758Z,19.08
2018-08-16T23:07:17.722Z,19.11
2018-08-16T23:08:17.710Z,19.06
2018-08-16T23:09:17.699Z,19.08
2018-08-16T23:10:17.703Z,19.02
2018-08-16T23:11:17.678Z,19.04
2018-08-16T23:12:17.667Z,18.92
2018-08-16T23:13:17.694Z,18.94
2018-08-16T23:14:17.645Z,18.92
2018-08-16T23:15:17.634Z,18.94
2018-08-16T23:16:17.623Z,18.91
2018-08-16T23:17:17.614Z,18.92
2018-08-16T23:18:17.623Z,18.80
2018-08-16T23:19:17.611Z,18.81
2018-08-16T23:20:17.581Z,18.78
2018-08-16T23:21:17.568Z,18.80
2018-08-16T23:22:17.557Z,18.84
2018-08-16T23:23:17.546Z,18.84
2018-08-16T23:24:17.574Z,18.88
2018-08-16T23:25:17.524Z,18.82
2018-08-16T23:26:17.512Z,18.81
2018-08-16T23:27:17.501Z,18.76
2018-08-16T23:28:17.496Z,18.75
2018-08-16T23:29:17.500Z,18.72
2018-08-16T23:30:17.468Z,18.73
2018-08-16T23:31:17.457Z,18.76
2018-08-16T23:32:17.447Z,18.66
2018-08-16T23:33:17.436Z,18.78
2018-08-16T23:34:17.438Z,18.75
2018-08-16T23:35:17.418Z,18.78
2018-08-16T23:36:17.404Z,18.72
2018-08-16T23:37:17.414Z,18.63
2018-08-16T23:38:17.380Z,18.62
2018-08-16T23:39:17.369Z,18.67
2018-08-16T23:40:17.381Z,18.63
2018-08-16T23:41:17.349Z,18.66
2018-08-16T23:42:17.338Z,18.66
2018-08-16T23:43:17.386Z,18.60
2018-08-16T23:44:17.316Z,18.62
2018-08-16T23:45:17.304Z,18.50
2018-08-16T23:46:17.292Z,18.48
2018-08-16T23:47:17.282Z,18.50
2018-08-16T23:48:17.292Z,18.51
2018-08-16T23:49:17.261Z,18.52
2018-08-16T23:50:17.250Z,18.52
2018-08-16T23:51:17.237Z,18.58
2018-08-16T23:52:17.227Z,18.51
2018-08-16T23:53:17.238Z,18.52
2018-08-16T23:54:17.205Z,18.48
2018-08-16T23:55:17.197Z,18.51
2018-08-16T23:56:17.183Z,18.45
2018-08-16T23:57:17.192Z,18.45
2018-08-16T23:58:17.164Z,18.42
2018-08-16T23:59:17.176Z,18.39
